Time;durP1;ratioP1;P1;durP2;ratioP2;P2;SDS_P1;SDS_P2;PMS_P1;PMS_P2;Temp;Humidity;BMP_temperature;BMP_pressure;BME280_temperature;BME280_humidity;BME280_pressure;Samples;Min_cycle;Max_cycle;Signal;HPM_P1;HPM_P2
2022/06/25 00:01:46;;;;;;;15.52;9.85;;;;;;;16.52;100.00;100795.06;4929011;29;20050;-81
2022/06/25 00:06:56;;;;;;;14.02;9.60;;;;;;;16.46;100.00;100806.19;4910486;29;20123;-80
2022/06/25 00:09:24;;;;;;;17.10;10.55;;;;;;;16.42;100.00;100801.06;4927213;29;20028;-81
2022/06/25 00:14:33;;;;;;;15.88;9.68;;;;;;;16.40;100.00;100802.97;4927410;28;20036;-78
2022/06/25 00:16:59;;;;;;;12.82;8.93;;;;;;;16.36;100.00;100801.50;4928543;29;20502;-80
2022/06/25 00:19:24;;;;;;;13.65;9.98;;;;;;;16.36;100.00;100817.53;4930709;29;20035;-80
2022/06/25 00:21:50;;;;;;;16.50;9.73;;;;;;;16.33;100.00;100804.38;4929087;29;20091;-81
2022/06/25 00:24:16;;;;;;;17.25;10.05;;;;;;;16.33;100.00;100803.53;4927644;29;20504;-80
2022/06/25 00:26:43;;;;;;;17.88;11.05;;;;;;;16.32;100.00;100800.00;4929854;29;20038;-82
2022/06/25 00:29:10;;;;;;;16.45;10.43;;;;;;;16.31;100.00;100808.97;4931638;29;20805;-80
2022/06/25 00:31:36;;;;;;;16.52;9.77;;;;;;;16.32;100.00;100802.66;4928402;29;20561;-78
2022/06/25 00:34:02;;;;;;;16.90;10.07;;;;;;;16.29;100.00;100802.91;4929284;29;20031;-80
2022/06/25 00:36:28;;;;;;;15.32;10.48;;;;;;;16.27;100.00;100794.97;4931823;29;20131;-79
2022/06/25 00:38:53;;;;;;;14.52;10.10;;;;;;;16.26;100.00;100792.41;4913930;29;20514;-81
2022/06/25 00:41:19;;;;;;;13.70;10.00;;;;;;;16.25;100.00;100804.91;4907651;29;20051;-80
2022/06/25 00:43:44;;;;;;;14.07;9.93;;;;;;;16.27;100.00;100802.13;4913402;29;20055;-79
2022/06/25 00:46:11;;;;;;;16.10;10.32;;;;;;;16.25;100.00;100798.72;4930763;29;20538;-80
2022/06/25 00:48:37;;;;;;;13.73;10.05;;;;;;;16.22;100.00;100793.56;4930438;29;20150;-81
2022/06/25 00:51:07;;;;;;;14.18;10.00;;;;;;;16.20;100.00;100795.50;4930026;29;20486;-79
2022/06/25 00:53:34;;;;;;;16.60;10.73;;;;;;;16.17;100.00;100793.06;4913931;29;20356;-80
2022/06/25 00:56:00;;;;;;;18.65;10.85;;;;;;;16.15;100.00;100788.69;4928287;29;20035;-80
2022/06/25 00:58:32;;;;;;;14.40;10.02;;;;;;;16.14;100.00;100800.31;4928903;29;20039;-79
2022/06/25 01:00:59;;;;;;;18.08;11.82;;;;;;;16.14;100.00;100792.31;4928598;29;20123;-79
2022/06/25 01:03:27;;;;;;;16.92;11.75;;;;;;;16.14;100.00;100800.31;4930609;29;20042;-79
2022/06/25 01:05:53;;;;;;;17.48;11.65;;;;;;;16.12;100.00;100799.56;4928771;29;20038;-80
2022/06/25 01:08:19;;;;;;;17.23;12.20;;;;;;;16.11;100.00;100808.56;4931519;29;20035;-81
2022/06/25 01:10:44;;;;;;;19.70;12.27;;;;;;;16.10;100.00;100801.50;4909521;29;20035;-80
2022/06/25 01:13:10;;;;;;;17.25;12.02;;;;;;;16.08;100.00;100806.06;4929466;29;20055;-79
2022/06/25 01:15:41;;;;;;;17.02;11.95;;;;;;;16.07;100.00;100811.53;4916402;29;20039;-84
2022/06/25 01:18:07;;;;;;;19.20;12.98;;;;;;;16.05;100.00;100813.44;4931366;29;20039;-79
2022/06/25 01:20:34;;;;;;;19.30;13.70;;;;;;;16.04;100.00;100809.06;4932154;29;20039;-79
2022/06/25 01:23:02;;;;;;;19.40;12.85;;;;;;;16.01;100.00;100807.47;4934500;29;20135;-81
2022/06/25 01:25:35;;;;;;;17.70;12.65;;;;;;;16.01;100.00;100820.81;4908752;29;20035;-80
2022/06/25 01:28:03;;;;;;;;;;;;;;;16.00;100.00;100811.09;4899606;29;20170;-81
2022/06/25 01:30:29;;;;;;;17.77;12.68;;;;;;;15.98;100.00;100818.38;4925374;29;20358;-83
2022/06/25 01:32:55;;;;;;;16.80;12.20;;;;;;;15.96;100.00;100825.66;4931003;29;20867;-81
2022/06/25 01:35:21;;;;;;;18.88;12.15;;;;;;;15.95;100.00;100822.09;4911713;29;20036;-80
2022/06/25 01:37:47;;;;;;;18.63;12.73;;;;;;;15.92;100.00;100830.34;4927988;29;20162;-80
2022/06/25 01:40:19;;;;;;;16.40;11.82;;;;;;;15.91;100.00;100830.41;4930104;29;20126;-82
2022/06/25 01:42:59;;;;;;;18.33;12.35;;;;;;;15.88;100.00;100835.00;4911525;29;20046;-80
2022/06/25 01:45:30;;;;;;;16.73;12.05;;;;;;;15.85;100.00;100843.19;4928351;29;20047;-79
2022/06/25 01:47:56;;;;;;;18.25;12.77;;;;;;;15.84;100.00;100844.16;4926965;29;20024;-80
2022/06/25 01:50:21;;;;;;;18.17;12.90;;;;;;;15.81;100.00;100835.50;4905631;29;20710;-81
2022/06/25 01:52:47;;;;;;;17.70;12.48;;;;;;;15.80;100.00;100834.63;4928112;29;20284;-80
2022/06/25 01:55:13;;;;;;;19.75;12.48;;;;;;;15.79;100.00;100840.94;4930027;29;20039;-81
2022/06/25 01:57:39;;;;;;;18.70;12.98;;;;;;;15.79;100.00;100840.09;4929629;29;20035;-81
2022/06/25 02:00:10;;;;;;;16.77;11.60;;;;;;;15.79;100.00;100845.44;4928915;29;20054;-80
2022/06/25 02:02:37;;;;;;;18.10;12.85;;;;;;;15.77;100.00;100845.53;4927610;29;20070;-80
2022/06/25 02:05:06;;;;;;;19.75;13.63;;;;;;;15.77;100.00;100848.22;4922573;29;20486;-81
2022/06/25 02:07:32;;;;;;;19.45;12.60;;;;;;;15.75;100.00;100839.47;4920561;29;20768;-80
2022/06/25 02:09:57;;;;;;;21.80;13.32;;;;;;;15.75;100.00;100847.47;4927775;29;20411;-80
2022/06/25 02:12:23;;;;;;;17.35;12.77;;;;;;;15.77;100.00;100852.69;4928037;29;20028;-80
2022/06/25 02:14:49;;;;;;;16.67;12.35;;;;;;;15.74;100.00;100851.06;4928767;29;20490;-80
2022/06/25 02:17:14;;;;;;;17.00;12.57;;;;;;;15.73;100.00;100860.91;4927189;29;20036;-77
2022/06/25 02:19:40;;;;;;;17.52;12.25;;;;;;;15.72;100.00;100864.53;4926075;29;20037;-77
2022/06/25 02:22:05;;;;;;;19.00;12.80;;;;;;;15.71;100.00;100867.31;4924983;29;20528;-78
2022/06/25 02:24:31;;;;;;;17.13;11.77;;;;;;;15.70;100.00;100868.25;4918376;29;20463;-78
2022/06/25 02:26:57;;;;;;;19.30;12.68;;;;;;;15.70;100.00;100868.25;4906195;29;20039;-79
2022/06/25 02:29:23;;;;;;;16.48;12.05;;;;;;;15.68;100.00;100864.84;4928474;29;20051;-79
2022/06/25 02:31:48;;;;;;;17.30;12.60;;;;;;;15.70;100.00;100866.44;4927095;29;20039;-80
2022/06/25 02:34:14;;;;;;;16.33;12.73;;;;;;;15.74;100.00;100883.09;4928545;29;20165;-80
2022/06/25 02:36:39;;;;;;;17.25;12.48;;;;;;;15.75;100.00;100876.81;4926963;28;20035;-79
2022/06/25 02:39:05;;;;;;;16.88;12.00;;;;;;;15.75;100.00;100876.81;4927377;29;20779;-81
2022/06/25 02:41:31;;;;;;;17.88;12.68;;;;;;;15.77;100.00;100874.91;4929562;29;20044;-80
2022/06/25 02:43:56;;;;;;;17.40;12.10;;;;;;;15.75;100.00;100882.16;4928954;29;20054;-81
2022/06/25 02:46:22;;;;;;;18.52;12.48;;;;;;;15.73;100.00;100884.94;4928903;29;20510;-80
2022/06/25 02:48:48;;;;;;;15.85;11.80;;;;;;;15.73;100.00;100874.25;4929479;29;20110;-80
2022/06/25 02:51:13;;;;;;;16.90;12.10;;;;;;;15.72;100.00;100885.03;4908153;29;20126;-78
2022/06/25 02:53:39;;;;;;;16.70;11.38;;;;;;;15.71;100.00;100880.66;4927548;29;20039;-79
2022/06/25 02:58:58;;;;;;;15.23;11.27;;;;;;;15.66;100.00;100885.44;4925055;29;20051;-79
2022/06/25 03:01:25;;;;;;;12.52;10.07;;;;;;;15.64;100.00;100885.56;4927849;29;20126;-80
2022/06/25 03:03:52;;;;;;;15.05;10.65;;;;;;;15.63;100.00;100882.97;4927960;29;20516;-80
2022/06/25 03:06:18;;;;;;;15.07;10.65;;;;;;;15.63;100.00;100888.31;4925960;29;20167;-81
2022/06/25 03:08:44;;;;;;;13.85;10.77;;;;;;;15.61;100.00;100883.94;4927133;29;21345;-79
2022/06/25 03:11:10;;;;;;;13.98;10.90;;;;;;;15.61;100.00;100893.75;4927365;29;20032;-79
2022/06/25 03:13:37;;;;;;;16.00;10.30;;;;;;;15.61;100.00;100893.75;4927190;29;20039;-79
2022/06/25 03:16:04;;;;;;;15.95;11.07;;;;;;;15.61;100.00;100886.59;4927866;29;20047;-80
2022/06/25 03:18:30;;;;;;;14.23;10.95;;;;;;;15.63;100.00;100889.16;4911381;29;20031;-79
2022/06/25 03:20:56;;;;;;;11.30;9.48;;;;;;;15.63;100.00;100890.97;4927371;29;20031;-79
2022/06/25 03:23:22;;;;;;;12.65;10.40;;;;;;;15.64;100.00;100901.56;4929760;29;20032;-81
2022/06/25 03:25:48;;;;;;;17.42;10.82;;;;;;;15.65;100.00;100905.94;4928974;28;20044;-80
2022/06/25 03:28:14;;;;;;;13.95;10.10;;;;;;;15.66;100.00;100902.31;4929745;29;20036;-80
2022/06/25 03:30:40;;;;;;;13.95;10.27;;;;;;;15.69;100.00;100898.59;4928876;29;20379;-80
2022/06/25 03:33:05;;;;;;;13.50;10.05;;;;;;;15.71;100.00;100900.19;4932270;29;20091;-82
2022/06/25 03:35:31;;;;;;;12.23;9.48;;;;;;;15.72;100.00;100904.56;4932537;29;20042;-81
2022/06/25 03:37:57;;;;;;;10.52;8.98;;;;;;;15.74;100.00;100901.78;4929361;29;20036;-80
2022/06/25 03:40:22;;;;;;;12.63;9.63;;;;;;;15.76;100.00;100907.88;4928872;29;20035;-80
2022/06/25 03:42:48;;;;;;;11.90;9.10;;;;;;;15.77;100.00;100906.06;4928667;29;20035;-80
2022/06/25 03:45:16;;;;;;;12.25;9.02;;;;;;;15.78;100.00;100897.09;4928520;29;20031;-83
2022/06/25 03:47:50;;;;;;;11.18;9.05;;;;;;;15.80;100.00;100904.03;4909103;29;20087;-80
2022/06/25 03:50:20;;;;;;;13.80;9.55;;;;;;;15.81;100.00;100903.09;4931974;29;20034;-81
2022/06/25 03:52:46;;;;;;;11.43;8.50;;;;;;;15.83;100.00;100905.66;4915935;29;20398;-80
2022/06/25 03:55:13;;;;;;;11.77;8.57;;;;;;;15.83;100.00;100901.19;4910526;29;20126;-81
2022/06/25 03:57:39;;;;;;;10.88;8.85;;;;;;;15.84;100.00;100900.22;4929662;29;20502;-80
2022/06/25 04:00:06;;;;;;;10.55;9.07;;;;;;;15.85;100.00;100898.41;4894083;29;20118;-81
2022/06/25 04:02:35;;;;;;;10.90;8.90;;;;;;;15.85;100.00;100901.09;4933416;29;20027;-81
2022/06/25 04:05:02;;;;;;;12.93;9.23;;;;;;;15.87;100.00;100904.50;4932996;29;20481;-81
2022/06/25 04:07:28;;;;;;;12.00;8.77;;;;;;;15.88;100.00;100907.06;4932644;29;20063;-80
2022/06/25 04:09:53;;;;;;;10.15;8.48;;;;;;;15.88;100.00;100909.75;4933174;29;20083;-80
2022/06/25 04:12:19;;;;;;;10.35;8.82;;;;;;;15.90;100.00;100909.63;4933554;29;20042;-79
2022/06/25 04:14:45;;;;;;;12.02;8.63;;;;;;;15.91;100.00;100908.66;4934052;29;20055;-81
2022/06/25 04:17:14;;;;;;;11.32;8.55;;;;;;;15.93;100.00;100906.78;4934749;29;20054;-79
2022/06/25 04:19:40;;;;;;;11.15;8.07;;;;;;;15.96;100.00;100913.75;4915088;29;20035;-78
2022/06/25 04:22:07;;;;;;;9.73;8.25;;;;;;;15.96;100.00;100908.41;4909927;29;20617;-82
2022/06/25 04:24:34;;;;;;;10.27;8.13;;;;;;;15.98;100.00;100918.03;4930436;28;20402;-79
2022/06/25 04:26:59;;;;;;;12.30;8.13;;;;;;;16.00;100.00;100921.44;4931812;29;20043;-79
2022/06/25 04:29:25;;;;;;;11.20;8.38;;;;;;;16.02;100.00;100924.84;4934915;29;20585;-79
2022/06/25 04:31:50;;;;;;;8.65;7.32;;;;;;;16.05;100.00;100915.78;4934039;29;20044;-81
2022/06/25 04:34:16;;;;;;;11.27;7.82;;;;;;;16.09;100.00;100911.97;4930919;29;20082;-80
2022/06/25 04:36:41;;;;;;;8.63;7.22;;;;;;;16.10;100.00;100913.66;4933082;29;20082;-81
2022/06/25 04:39:07;;;;;;;11.05;8.10;;;;;;;16.14;100.00;100914.31;4932330;29;21563;-81
2022/06/25 04:41:32;;;;;;;9.85;7.95;;;;;;;16.17;100.00;100922.09;4933260;29;20071;-81
2022/06/25 04:43:59;;;;;;;10.52;8.07;;;;;;;16.20;100.00;100924.56;4931732;29;20047;-80
2022/06/25 04:46:24;;;;;;;10.68;7.78;;;;;;;16.24;100.00;100930.56;4917398;29;20035;-79
2022/06/25 04:48:50;;;;;;;10.45;8.07;;;;;;;16.27;100.00;100933.88;4932858;29;20542;-81
2022/06/25 04:51:15;;;;;;;9.95;8.20;;;;;;;16.33;100.00;100937.94;4932599;29;20557;-80
2022/06/25 04:53:56;;;;;;;9.80;7.88;;;;;;;16.35;100.00;100944.03;4938860;29;20024;-80
2022/06/25 04:56:23;;;;;;;10.10;7.50;;;;;;;16.41;100.00;100951.63;4932428;29;20486;-79
2022/06/25 04:58:48;;;;;;;10.52;7.95;;;;;;;16.48;100.00;100952.06;4931154;28;20050;-81
2022/06/25 05:01:17;;;;;;;9.02;7.75;;;;;;;16.53;100.00;100952.63;4933661;29;20043;-80
2022/06/25 05:03:42;;;;;;;8.63;6.75;;;;;;;16.58;100.00;100959.44;4934957;29;20031;-81
2022/06/25 05:06:08;;;;;;;9.15;7.30;;;;;;;16.65;100.00;100952.69;4933918;29;20510;-80
2022/06/25 05:08:34;;;;;;;8.75;7.15;;;;;;;16.70;100.00;100951.44;4914593;29;20095;-82
2022/06/25 05:11:00;;;;;;;9.20;7.05;;;;;;;16.77;100.00;100949.19;4927762;29;20106;-82
2022/06/25 05:13:26;;;;;;;9.88;7.05;;;;;;;16.82;100.00;100952.41;4934534;29;20734;-81
2022/06/25 05:15:54;;;;;;;11.88;7.57;;;;;;;16.90;100.00;100951.00;4916383;29;20050;-82
2022/06/25 05:18:20;;;;;;;10.65;7.00;;;;;;;16.97;100.00;100947.78;4911764;29;20043;-81
2022/06/25 05:20:46;;;;;;;7.47;6.70;;;;;;;17.06;100.00;100948.97;4933079;29;20043;-80
2022/06/25 05:23:12;;;;;;;7.72;6.35;;;;;;;17.16;100.00;100957.19;4933601;29;20581;-80
2022/06/25 05:25:40;;;;;;;9.02;6.88;;;;;;;17.29;100.00;100958.97;4934945;29;20035;-80
2022/06/25 05:28:06;;;;;;;9.13;6.63;;;;;;;17.42;100.00;100967.81;4935756;29;20051;-81
2022/06/25 05:30:32;;;;;;;9.40;7.05;;;;;;;17.58;100.00;100970.25;4914532;29;20104;-81
2022/06/25 05:32:58;;;;;;;7.50;6.38;;;;;;;17.70;100.00;100973.00;4935428;29;20039;-81
2022/06/25 05:35:24;;;;;;;8.18;6.35;;;;;;;17.78;100.00;100978.63;4917238;29;20042;-82
2022/06/25 05:37:50;;;;;;;9.45;6.10;;;;;;;17.85;100.00;100976.34;4932647;29;20035;-81
2022/06/25 05:40:20;;;;;;;8.98;6.28;;;;;;;17.93;100.00;100982.00;4932498;29;20042;-82
2022/06/25 05:42:46;;;;;;;8.27;6.65;;;;;;;18.04;100.00;100975.84;4925735;29;20039;-81
2022/06/25 05:45:12;;;;;;;7.03;5.97;;;;;;;18.14;100.00;100986.75;4928140;29;20236;-82
2022/06/25 05:47:38;;;;;;;7.00;5.80;;;;;;;18.27;100.00;100992.88;4921542;29;20119;-81
2022/06/25 05:50:04;;;;;;;6.72;5.72;;;;;;;18.40;100.00;101003.50;4910839;29;20027;-82
2022/06/25 05:52:30;;;;;;;7.93;6.15;;;;;;;18.56;100.00;101002.31;4929411;29;20066;-82
2022/06/25 05:54:55;;;;;;;7.35;5.93;;;;;;;18.73;100.00;101003.69;4914132;29;20569;-82
2022/06/25 05:57:21;;;;;;;7.13;5.70;;;;;;;18.85;100.00;101002.75;4930771;29;20078;-81
2022/06/25 05:59:46;;;;;;;7.13;6.10;;;;;;;19.02;100.00;100997.94;4929200;29;20059;-81
2022/06/25 06:02:12;;;;;;;8.65;5.32;;;;;;;19.17;100.00;100997.69;4928704;29;20072;-82
2022/06/25 06:04:37;;;;;;;6.80;5.10;;;;;;;19.36;100.00;101013.16;4929108;29;20044;-83
2022/06/25 06:07:04;;;;;;;6.72;5.70;;;;;;;19.49;100.00;101007.63;4908758;29;20067;-82
2022/06/25 06:09:31;;;;;;;7.57;5.70;;;;;;;19.60;100.00;101010.31;4929556;29;20042;-82
2022/06/25 06:11:57;;;;;;;7.22;5.03;;;;;;;19.67;100.00;101003.47;4924008;29;20046;-81
2022/06/25 06:14:23;;;;;;;6.63;5.03;;;;;;;19.78;100.00;101007.13;4928311;29;20421;-82
2022/06/25 06:16:49;;;;;;;6.43;4.70;;;;;;;19.94;100.00;101010.22;4928049;29;20062;-81
2022/06/25 06:19:14;;;;;;;5.88;4.75;;;;;;;20.18;100.00;101013.72;4928849;29;20039;-81
2022/06/25 06:21:40;;;;;;;6.00;4.75;;;;;;;20.43;100.00;101012.50;4920117;29;20481;-81
2022/06/25 06:24:06;;;;;;;4.78;3.90;;;;;;;20.60;100.00;101012.91;4925992;29;20027;-82
2022/06/25 06:26:35;;;;;;;5.60;4.10;;;;;;;20.75;100.00;101014.28;4926579;29;20059;-83
2022/06/25 06:29:01;;;;;;;4.70;4.18;;;;;;;20.91;100.00;101018.34;4927159;29;20490;-82
2022/06/25 06:31:26;;;;;;;4.65;4.15;;;;;;;21.02;100.00;101018.28;4909316;29;20043;-83
2022/06/25 06:33:52;;;;;;;4.88;3.72;;;;;;;21.00;100.00;101031.00;4925805;29;20024;-83
2022/06/25 06:36:18;;;;;;;7.07;4.18;;;;;;;20.93;100.00;101021.78;4928373;29;20093;-82
2022/06/25 06:38:43;;;;;;;3.58;3.28;;;;;;;20.92;100.00;101021.91;4927117;29;20086;-82
2022/06/25 06:41:09;;;;;;;4.82;3.80;;;;;;;20.89;100.00;101025.69;4927245;29;20036;-84
2022/06/25 06:43:34;;;;;;;4.55;3.22;;;;;;;20.93;100.00;101026.28;4928274;29;20112;-82
2022/06/25 06:46:00;;;;;;;3.85;3.30;;;;;;;21.03;100.00;101033.41;4907830;29;20027;-83
2022/06/25 06:48:25;;;;;;;4.82;3.67;;;;;;;21.12;100.00;101031.78;4930092;29;20038;-83
2022/06/25 06:50:51;;;;;;;5.32;3.45;;;;;;;21.16;100.00;101032.34;4913747;29;20122;-80
2022/06/25 06:53:16;;;;;;;3.83;3.35;;;;;;;21.26;100.00;101022.50;4928980;29;20039;-83
2022/06/25 06:55:42;;;;;;;5.30;3.17;;;;;;;21.40;100.00;101025.78;4929015;29;20273;-82
2022/06/25 06:58:08;;;;;;;5.75;3.35;;;;;;;21.44;100.00;101027.22;4911741;29;20596;-82
2022/06/25 07:00:33;;;;;;;4.38;3.30;;;;;;;21.52;100.00;101030.06;4928423;29;20071;-83
2022/06/25 07:02:58;;;;;;;3.42;2.78;;;;;;;21.60;99.99;101031.22;4931302;29;20131;-83
2022/06/25 07:05:24;;;;;;;3.22;2.78;;;;;;;21.59;100.00;101035.78;4930791;28;20050;-83
2022/06/25 07:07:50;;;;;;;5.15;2.92;;;;;;;21.55;98.17;101039.72;4928152;29;20123;-82
2022/06/25 07:10:15;;;;;;;3.10;2.55;;;;;;;21.55;95.53;101032.50;4925753;29;20844;-81
2022/06/25 07:12:41;;;;;;;3.55;2.63;;;;;;;21.47;92.70;101039.56;4926251;29;20695;-83
2022/06/25 07:15:07;;;;;;;3.63;2.60;;;;;;;21.41;92.70;101035.59;4926765;29;20035;-86
2022/06/25 07:17:32;;;;;;;3.13;2.13;;;;;;;21.41;94.25;101040.97;4928425;29;20036;-80
2022/06/25 07:19:58;;;;;;;3.13;2.60;;;;;;;21.53;95.02;101041.72;4926206;29;20083;-81
2022/06/25 07:22:24;;;;;;;3.40;2.30;;;;;;;21.60;92.46;101042.84;4928746;29;20028;-84
2022/06/25 07:24:51;;;;;;;3.65;1.75;;;;;;;21.57;91.20;101052.06;4932416;28;20514;-81
2022/06/25 07:27:17;;;;;;;2.45;2.03;;;;;;;21.52;93.00;101058.84;4933459;29;20062;-82
2022/06/25 07:29:43;;;;;;;2.22;1.80;;;;;;;21.50;89.61;101050.91;4932032;29;20185;-80
2022/06/25 07:32:08;;;;;;;3.58;2.40;;;;;;;21.47;90.89;101050.31;4932776;28;20059;-80
2022/06/25 07:34:34;;;;;;;4.45;2.60;;;;;;;21.50;92.60;101055.44;4933569;29;20549;-80
2022/06/25 07:36:59;;;;;;;3.75;2.30;;;;;;;21.69;93.73;101060.06;4933758;29;20512;-80
2022/06/25 07:39:25;;;;;;;4.70;2.40;;;;;;;21.91;93.78;101064.38;4933695;29;20046;-82
2022/06/25 07:41:50;;;;;;;3.42;2.40;;;;;;;22.09;93.17;101059.16;4932807;29;20054;-82
2022/06/25 07:44:15;;;;;;;3.17;2.60;;;;;;;22.25;92.34;101061.31;4934393;29;20097;-83
2022/06/25 07:46:41;;;;;;;4.18;2.50;;;;;;;22.38;91.47;101061.00;4934821;29;20040;-81
2022/06/25 07:49:09;;;;;;;3.40;2.45;;;;;;;22.56;91.64;101062.16;4933794;29;20043;-81
2022/06/25 07:54:19;;;;;;;2.83;2.00;;;;;;;22.77;84.44;101062.84;4935577;29;20051;-79
2022/06/25 07:56:44;;;;;;;3.72;2.53;;;;;;;22.78;88.76;101066.41;4934509;29;20043;-76
2022/06/25 07:59:10;;;;;;;2.58;2.13;;;;;;;22.65;87.60;101072.09;4932115;29;20126;-80
2022/06/25 08:01:35;;;;;;;4.05;2.38;;;;;;;22.52;85.09;101067.84;4932432;29;20044;-80
2022/06/25 08:04:01;;;;;;;3.05;2.10;;;;;;;22.52;86.51;101075.94;4931341;29;20034;-80
2022/06/25 08:06:26;;;;;;;3.13;2.42;;;;;;;22.39;81.65;101068.09;4932990;29;20581;-81
2022/06/25 08:08:52;;;;;;;5.28;2.90;;;;;;;22.31;85.74;101073.34;4933942;29;20055;-79
2022/06/25 08:11:18;;;;;;;3.30;2.65;;;;;;;22.18;86.00;101078.16;4933379;29;20027;-80
2022/06/25 08:13:44;;;;;;;4.03;3.00;;;;;;;22.18;86.14;101079.00;4933923;28;20047;-80
2022/06/25 08:16:10;;;;;;;3.15;2.65;;;;;;;22.37;87.61;101078.19;4934185;29;20123;-80
2022/06/25 08:18:38;;;;;;;2.95;2.67;;;;;;;22.53;87.66;101079.47;4932872;28;20035;-81
2022/06/25 08:21:04;;;;;;;5.38;2.35;;;;;;;22.68;86.22;101088.00;4930984;29;20032;-80
2022/06/25 08:23:30;;;;;;;3.60;2.88;;;;;;;22.84;85.98;101087.41;4931738;29;20717;-80
2022/06/25 08:25:55;;;;;;;2.95;2.58;;;;;;;22.88;83.76;101083.41;4933292;29;20036;-80
2022/06/25 08:28:22;;;;;;;3.25;2.70;;;;;;;22.93;86.21;101096.47;4931944;29;20039;-81
2022/06/25 08:30:48;;;;;;;2.70;2.42;;;;;;;22.96;85.60;101095.31;4933782;29;20070;-81
2022/06/25 08:33:14;;;;;;;3.33;2.95;;;;;;;23.18;85.42;101095.00;4933700;29;20432;-80
2022/06/25 08:35:40;;;;;;;3.97;2.65;;;;;;;23.27;76.56;101104.03;4929093;29;20039;-79
2022/06/25 08:38:06;;;;;;;3.33;2.80;;;;;;;23.39;83.12;101096.66;4929440;29;20422;-80
2022/06/25 08:40:31;;;;;;;3.13;2.70;;;;;;;23.46;81.91;101102.31;4926545;29;20043;-83
2022/06/25 08:42:58;;;;;;;4.07;2.47;;;;;;;23.46;81.70;101086.97;4925885;29;20043;-83
2022/06/25 08:45:23;;;;;;;2.40;2.20;;;;;;;23.63;82.93;101087.16;4928184;29;20035;-80
2022/06/25 08:47:50;;;;;;;1.80;1.70;;;;;;;23.71;83.15;101099.94;4928629;29;20667;-82
2022/06/25 08:50:18;;;;;;;3.58;2.60;;;;;;;23.86;81.42;101095.72;4913555;29;20031;-82
2022/06/25 08:52:46;;;;;;;4.53;2.42;;;;;;;23.96;83.26;101103.75;4934753;29;20143;-82
2022/06/25 08:55:21;;;;;;;3.38;2.75;;;;;;;23.98;79.18;101104.44;4933398;28;20055;-82
2022/06/25 08:57:47;;;;;;;2.60;2.40;;;;;;;24.04;81.66;101096.75;4923604;29;20091;-78
2022/06/25 09:00:13;;;;;;;3.50;2.15;;;;;;;24.14;81.72;101105.69;4923427;29;20180;-81
2022/06/25 09:02:39;;;;;;;3.75;2.60;;;;;;;24.08;80.68;101109.00;4927675;29;20513;-81
2022/06/25 09:05:08;;;;;;;2.70;2.47;;;;;;;24.12;80.92;101104.97;4928633;29;20078;-79
2022/06/25 09:07:33;;;;;;;2.90;2.60;;;;;;;23.95;78.52;101110.19;4927619;29;20039;-79
2022/06/25 09:09:59;;;;;;;2.40;2.20;;;;;;;23.87;80.14;101108.22;4930858;29;20194;-80
2022/06/25 09:12:25;;;;;;;3.53;2.75;;;;;;;23.88;79.81;101107.22;4933647;29;20031;-79
2022/06/25 09:14:50;;;;;;;3.08;2.30;;;;;;;23.80;80.21;101114.41;4927348;29;20046;-77
2022/06/25 09:17:16;;;;;;;3.03;2.70;;;;;;;23.72;79.22;101109.72;4923053;29;20905;-76
2022/06/25 09:19:47;;;;;;;2.60;2.38;;;;;;;23.53;78.55;101113.38;4923708;29;20043;-73
2022/06/25 09:22:21;;;;;;;4.30;2.70;;;;;;;23.43;77.95;101110.72;4920885;29;20038;-76
2022/06/25 09:24:52;;;;;;;3.75;3.33;;;;;;;23.24;75.87;101108.88;4922149;29;20639;-79
2022/06/25 09:27:40;;;;;;;3.05;2.75;;;;;;;23.03;75.55;101107.25;4924166;29;20067;-82
2022/06/25 09:30:10;;;;;;;3.45;2.63;;;;;;;23.00;79.64;101113.81;4906827;29;20046;-81
2022/06/25 09:32:45;;;;;;;3.33;2.92;;;;;;;23.09;77.30;101112.06;4926826;29;20063;-81
2022/06/25 09:35:12;;;;;;;4.82;2.47;;;;;;;23.07;79.66;101114.06;4928582;29;20034;-81
2022/06/25 09:37:39;;;;;;;3.35;2.50;;;;;;;23.20;79.76;101114.59;4903741;29;20706;-80
2022/06/25 09:40:05;;;;;;;4.57;3.47;;;;;;;23.31;78.67;101104.66;4929233;29;20039;-79
2022/06/25 09:42:33;;;;;;;4.07;2.70;;;;;;;23.41;78.65;101110.00;4910569;29;20031;-82
2022/06/25 09:45:11;;;;;;;3.03;2.60;;;;;;;23.43;78.49;101111.56;4907978;29;20063;-82
2022/06/25 09:47:43;;;;;;;2.53;2.20;;;;;;;23.52;78.89;101115.22;4921229;29;20070;-81
2022/06/25 09:50:17;;;;;;;2.60;2.40;;;;;;;23.65;77.97;101123.00;4911066;29;20487;-84
2022/06/25 09:52:59;;;;;;;3.83;2.60;;;;;;;23.70;76.50;101112.56;4893623;29;20043;-81
2022/06/25 09:55:33;;;;;;;3.22;2.70;;;;;;;23.78;76.96;101124.50;4908280;29;20623;-83
2022/06/25 09:58:03;;;;;;;2.53;2.33;;;;;;;23.77;77.38;101114.69;4905293;29;20039;-85
2022/06/25 10:00:30;;;;;;;3.72;2.65;;;;;;;23.83;77.33;101119.50;4928614;29;20056;-83
2022/06/25 10:02:58;;;;;;;2.97;2.20;;;;;;;23.88;77.25;101122.59;4891150;29;20043;-81
2022/06/25 10:05:43;;;;;;;2.30;2.10;;;;;;;23.86;74.86;101128.16;4901784;29;20050;-82
2022/06/25 10:08:11;;;;;;;2.92;2.05;;;;;;;23.90;76.89;101120.59;4905934;29;20082;-82
2022/06/25 10:10:40;;;;;;;3.72;2.15;;;;;;;24.01;76.78;101111.41;4904893;29;20161;-83
2022/06/25 10:13:08;;;;;;;4.75;1.80;;;;;;;23.93;74.72;101124.84;4923053;29;20035;-84
2022/06/25 10:15:34;;;;;;;1.98;1.60;;;;;;;23.81;75.80;101124.22;4925809;29;20413;-83
2022/06/25 10:18:06;;;;;;;3.03;1.70;;;;;;;23.72;75.66;101126.81;4919038;29;20046;-81
2022/06/25 10:20:33;;;;;;;1.42;1.30;;;;;;;23.67;76.14;101122.84;4904844;29;20084;-78
2022/06/25 10:23:01;;;;;;;1.65;1.10;;;;;;;23.56;75.65;101124.75;4923426;29;21468;-85
2022/06/25 10:25:27;;;;;;;1.30;1.20;;;;;;;23.43;76.10;101124.22;4906886;29;20075;-83
2022/06/25 10:28:16;;;;;;;4.00;1.52;;;;;;;23.32;74.30;101134.19;4924453;29;20086;-81
2022/06/25 10:30:50;;;;;;;2.58;1.15;;;;;;;23.31;75.32;101127.09;4924799;29;20060;-79
2022/06/25 10:33:18;;;;;;;1.48;1.38;;;;;;;23.24;75.09;101135.91;4922243;29;20122;-80
2022/06/25 10:35:45;;;;;;;2.22;1.50;;;;;;;23.15;76.17;101133.06;4923143;29;20177;-80
2022/06/25 10:38:13;;;;;;;2.28;1.70;;;;;;;23.04;77.04;101146.75;4928754;29;20032;-81
2022/06/25 10:40:56;;;;;;;4.13;3.05;;;;;;;22.79;77.76;101151.75;4930608;29;20028;-79
2022/06/25 10:43:45;;;;;;;4.78;3.95;;;;;;;22.24;81.92;101151.25;4914119;29;20042;-82
2022/06/25 10:46:36;;;;;;;6.22;2.90;;;;;;;21.78;83.12;101166.16;4908156;29;20047;-79
2022/06/25 10:49:18;;;;;;;2.80;2.53;;;;;;;21.41;86.19;101164.84;4921951;29;21973;-78
2022/06/25 10:51:45;;;;;;;2.05;1.92;;;;;;;21.11;85.94;101170.03;4915686;29;20066;-76
2022/06/25 10:54:34;;;;;;;2.65;2.28;;;;;;;20.85;87.12;101164.16;4919846;29;20083;-78
2022/06/25 10:57:00;;;;;;;3.22;2.25;;;;;;;20.67;89.30;101183.53;4922575;29;20059;-78
2022/06/25 10:59:33;;;;;;;3.50;2.08;;;;;;;20.49;91.62;101181.38;4914176;29;21492;-76
2022/06/25 11:01:59;;;;;;;3.33;2.05;;;;;;;20.32;92.87;101179.25;4922428;29;20039;-82
2022/06/25 11:04:29;;;;;;;3.83;2.15;;;;;;;20.09;92.66;101171.19;4909886;29;20034;-77
2022/06/25 11:07:17;;;;;;;2.47;2.28;;;;;;;20.11;96.20;101176.44;4921622;29;20099;-74
2022/06/25 11:09:58;;;;;;;3.30;2.78;;;;;;;20.39;98.36;101172.38;4909258;29;20035;-74
2022/06/25 11:12:25;;;;;;;5.20;2.50;;;;;;;20.62;95.64;101174.97;4921286;29;20035;-75
2022/06/25 11:15:10;;;;;;;3.70;2.75;;;;;;;20.65;94.28;101179.25;4924052;29;20059;-76
2022/06/25 11:17:36;;;;;;;3.97;2.65;;;;;;;20.68;93.74;101170.91;4918734;29;20121;-75
2022/06/25 11:20:04;;;;;;;3.88;2.30;;;;;;;20.72;93.20;101170.56;4903551;29;20043;-75
2022/06/25 11:22:29;;;;;;;3.47;2.80;;;;;;;20.86;93.57;101176.66;4920397;29;20035;-76
2022/06/25 11:30:23;;;;;;;3.55;3.20;;;;;;;20.88;92.05;101182.75;4920624;29;20044;-77
2022/06/25 11:32:51;;;;;;;5.13;3.35;;;;;;;20.81;92.24;101181.53;4923568;29;20087;-77